sensor_id;sensor_type;location;lat;lon;timestamp;P1;durP1;ratioP1;P2;durP2;ratioP2
6663;SDS011;58749;48.022;10.922;2022-09-27T00:01:51;1.45;;;1.33;;
6663;SDS011;58749;48.022;10.922;2022-09-27T00:04:19;4.15;;;1.48;;
6663;SDS011;58749;48.022;10.922;2022-09-27T00:06:47;2.30;;;1.52;;
6663;SDS011;58749;48.022;10.922;2022-09-27T00:09:21;3.25;;;1.40;;
6663;SDS011;58749;48.022;10.922;2022-09-27T00:11:49;1.60;;;1.38;;
6663;SDS011;58749;48.022;10.922;2022-09-27T00:14:18;2.38;;;1.90;;
6663;SDS011;58749;48.022;10.922;2022-09-27T00:16:47;3.35;;;1.80;;
6663;SDS011;58749;48.022;10.922;2022-09-27T00:19:16;2.22;;;1.45;;
6663;SDS011;58749;48.022;10.922;2022-09-27T00:21:47;2.17;;;1.50;;
6663;SDS011;58749;48.022;10.922;2022-09-27T00:24:16;4.47;;;1.55;;
6663;SDS011;58749;48.022;10.922;2022-09-27T00:26:46;4.53;;;1.95;;
6663;SDS011;58749;48.022;10.922;2022-09-27T00:29:15;1.75;;;1.30;;
6663;SDS011;58749;48.022;10.922;2022-09-27T00:31:45;2.00;;;1.65;;
6663;SDS011;58749;48.022;10.922;2022-09-27T00:34:15;4.10;;;1.70;;
6663;SDS011;58749;48.022;10.922;2022-09-27T00:36:46;2.45;;;1.58;;
6663;SDS011;58749;48.022;10.922;2022-09-27T00:39:15;3.55;;;1.60;;
6663;SDS011;58749;48.022;10.922;2022-09-27T00:41:43;2.25;;;1.50;;
6663;SDS011;58749;48.022;10.922;2022-09-27T00:47:20;4.22;;;1.20;;
6663;SDS011;58749;48.022;10.922;2022-09-27T00:49:55;2.28;;;1.65;;
6663;SDS011;58749;48.022;10.922;2022-09-27T00:52:28;2.67;;;1.50;;
6663;SDS011;58749;48.022;10.922;2022-09-27T00:55:02;2.78;;;1.73;;
6663;SDS011;58749;48.022;10.922;2022-09-27T00:57:35;4.00;;;1.80;;
6663;SDS011;58749;48.022;10.922;2022-09-27T01:00:05;1.80;;;1.20;;
6663;SDS011;58749;48.022;10.922;2022-09-27T01:02:37;2.28;;;1.40;;
6663;SDS011;58749;48.022;10.922;2022-09-27T01:05:09;4.50;;;2.00;;
6663;SDS011;58749;48.022;10.922;2022-09-27T01:07:40;3.08;;;1.55;;
6663;SDS011;58749;48.022;10.922;2022-09-27T01:10:08;1.35;;;1.20;;
6663;SDS011;58749;48.022;10.922;2022-09-27T01:12:40;3.03;;;1.52;;
6663;SDS011;58749;48.022;10.922;2022-09-27T01:15:16;4.18;;;1.58;;
6663;SDS011;58749;48.022;10.922;2022-09-27T01:17:57;4.03;;;1.80;;
6663;SDS011;58749;48.022;10.922;2022-09-27T01:23:40;2.22;;;1.60;;
6663;SDS011;58749;48.022;10.922;2022-09-27T01:26:36;2.22;;;1.65;;
6663;SDS011;58749;48.022;10.922;2022-09-27T01:29:20;2.33;;;1.52;;
6663;SDS011;58749;48.022;10.922;2022-09-27T01:31:59;3.33;;;2.10;;
6663;SDS011;58749;48.022;10.922;2022-09-27T01:34:34;3.65;;;1.67;;
6663;SDS011;58749;48.022;10.922;2022-09-27T01:37:11;3.97;;;1.90;;
6663;SDS011;58749;48.022;10.922;2022-09-27T01:39:47;2.67;;;1.92;;
6663;SDS011;58749;48.022;10.922;2022-09-27T01:42:20;3.47;;;1.85;;
6663;SDS011;58749;48.022;10.922;2022-09-27T01:44:53;5.88;;;2.20;;
6663;SDS011;58749;48.022;10.922;2022-09-27T01:47:28;3.78;;;1.80;;
6663;SDS011;58749;48.022;10.922;2022-09-27T01:50:01;4.20;;;2.40;;
6663;SDS011;58749;48.022;10.922;2022-09-27T01:52:34;3.15;;;1.77;;
6663;SDS011;58749;48.022;10.922;2022-09-27T01:55:07;2.22;;;1.65;;
6663;SDS011;58749;48.022;10.922;2022-09-27T01:57:42;1.88;;;1.63;;
6663;SDS011;58749;48.022;10.922;2022-09-27T02:00:13;4.57;;;1.80;;
6663;SDS011;58749;48.022;10.922;2022-09-27T02:02:45;3.05;;;1.75;;
6663;SDS011;58749;48.022;10.922;2022-09-27T02:05:15;3.05;;;1.90;;
6663;SDS011;58749;48.022;10.922;2022-09-27T02:07:47;3.17;;;2.15;;
6663;SDS011;58749;48.022;10.922;2022-09-27T02:10:20;3.60;;;1.92;;
6663;SDS011;58749;48.022;10.922;2022-09-27T02:12:53;4.55;;;1.85;;
6663;SDS011;58749;48.022;10.922;2022-09-27T02:15:27;2.42;;;2.17;;
6663;SDS011;58749;48.022;10.922;2022-09-27T02:18:06;3.65;;;2.20;;
6663;SDS011;58749;48.022;10.922;2022-09-27T02:20:43;3.65;;;1.80;;
6663;SDS011;58749;48.022;10.922;2022-09-27T02:23:18;2.88;;;1.77;;
6663;SDS011;58749;48.022;10.922;2022-09-27T02:25:50;2.60;;;1.90;;
6663;SDS011;58749;48.022;10.922;2022-09-27T02:28:24;1.85;;;1.58;;
6663;SDS011;58749;48.022;10.922;2022-09-27T02:30:56;3.25;;;2.08;;
6663;SDS011;58749;48.022;10.922;2022-09-27T02:33:27;2.33;;;1.52;;
6663;SDS011;58749;48.022;10.922;2022-09-27T02:35:58;2.40;;;1.80;;
6663;SDS011;58749;48.022;10.922;2022-09-27T02:38:26;3.58;;;1.63;;
6663;SDS011;58749;48.022;10.922;2022-09-27T02:40:54;1.98;;;1.48;;
6663;SDS011;58749;48.022;10.922;2022-09-27T02:43:22;1.70;;;1.60;;
6663;SDS011;58749;48.022;10.922;2022-09-27T02:45:59;3.20;;;1.58;;
6663;SDS011;58749;48.022;10.922;2022-09-27T02:48:43;2.40;;;1.75;;
6663;SDS011;58749;48.022;10.922;2022-09-27T02:51:32;2.75;;;1.73;;
6663;SDS011;58749;48.022;10.922;2022-09-27T02:54:11;2.88;;;1.90;;
6663;SDS011;58749;48.022;10.922;2022-09-27T02:56:49;3.00;;;1.58;;
6663;SDS011;58749;48.022;10.922;2022-09-27T02:59:29;2.47;;;1.50;;
6663;SDS011;58749;48.022;10.922;2022-09-27T03:02:05;2.67;;;1.70;;
6663;SDS011;58749;48.022;10.922;2022-09-27T03:04:41;2.67;;;1.92;;
6663;SDS011;58749;48.022;10.922;2022-09-27T03:07:14;6.10;;;1.60;;
6663;SDS011;58749;48.022;10.922;2022-09-27T03:09:43;2.05;;;1.73;;
6663;SDS011;58749;48.022;10.922;2022-09-27T03:12:13;2.08;;;1.58;;
6663;SDS011;58749;48.022;10.922;2022-09-27T03:14:45;2.35;;;1.60;;
6663;SDS011;58749;48.022;10.922;2022-09-27T03:17:14;3.25;;;1.85;;
6663;SDS011;58749;48.022;10.922;2022-09-27T03:19:44;1.85;;;1.50;;
6663;SDS011;58749;48.022;10.922;2022-09-27T03:22:12;3.80;;;1.67;;
6663;SDS011;58749;48.022;10.922;2022-09-27T03:24:40;3.45;;;1.88;;
6663;SDS011;58749;48.022;10.922;2022-09-27T03:27:08;3.42;;;1.75;;
6663;SDS011;58749;48.022;10.922;2022-09-27T03:29:38;2.67;;;1.88;;
6663;SDS011;58749;48.022;10.922;2022-09-27T03:32:06;1.98;;;1.30;;
6663;SDS011;58749;48.022;10.922;2022-09-27T03:34:34;1.80;;;1.60;;
6663;SDS011;58749;48.022;10.922;2022-09-27T03:37:03;2.20;;;1.48;;
6663;SDS011;58749;48.022;10.922;2022-09-27T03:39:31;2.00;;;1.58;;
6663;SDS011;58749;48.022;10.922;2022-09-27T03:41:59;2.13;;;1.48;;
6663;SDS011;58749;48.022;10.922;2022-09-27T03:44:27;2.38;;;1.35;;
6663;SDS011;58749;48.022;10.922;2022-09-27T03:46:55;3.47;;;1.42;;
6663;SDS011;58749;48.022;10.922;2022-09-27T03:49:24;1.65;;;1.27;;
6663;SDS011;58749;48.022;10.922;2022-09-27T03:51:52;1.63;;;1.30;;
6663;SDS011;58749;48.022;10.922;2022-09-27T03:54:22;1.58;;;1.27;;
6663;SDS011;58749;48.022;10.922;2022-09-27T03:56:50;2.22;;;1.23;;
6663;SDS011;58749;48.022;10.922;2022-09-27T03:59:18;1.95;;;1.23;;
6663;SDS011;58749;48.022;10.922;2022-09-27T04:01:46;3.65;;;2.13;;
6663;SDS011;58749;48.022;10.922;2022-09-27T04:04:15;2.50;;;1.80;;
6663;SDS011;58749;48.022;10.922;2022-09-27T04:06:43;1.95;;;1.52;;
6663;SDS011;58749;48.022;10.922;2022-09-27T04:09:11;2.75;;;2.30;;
6663;SDS011;58749;48.022;10.922;2022-09-27T04:11:41;2.65;;;2.17;;
6663;SDS011;58749;48.022;10.922;2022-09-27T04:14:09;1.70;;;1.10;;
6663;SDS011;58749;48.022;10.922;2022-09-27T04:16:38;2.50;;;1.65;;
6663;SDS011;58749;48.022;10.922;2022-09-27T04:19:06;2.22;;;1.30;;
6663;SDS011;58749;48.022;10.922;2022-09-27T04:21:34;2.65;;;1.05;;
6663;SDS011;58749;48.022;10.922;2022-09-27T04:24:03;1.77;;;1.25;;
6663;SDS011;58749;48.022;10.922;2022-09-27T04:26:31;1.83;;;1.38;;
6663;SDS011;58749;48.022;10.922;2022-09-27T04:29:01;3.15;;;1.20;;
6663;SDS011;58749;48.022;10.922;2022-09-27T04:31:29;1.23;;;0.90;;
6663;SDS011;58749;48.022;10.922;2022-09-27T04:33:57;2.25;;;0.57;;
6663;SDS011;58749;48.022;10.922;2022-09-27T04:36:25;0.90;;;0.65;;
6663;SDS011;58749;48.022;10.922;2022-09-27T04:38:53;1.05;;;0.60;;
6663;SDS011;58749;48.022;10.922;2022-09-27T04:41:22;1.20;;;0.70;;
6663;SDS011;58749;48.022;10.922;2022-09-27T04:43:51;1.10;;;0.95;;
6663;SDS011;58749;48.022;10.922;2022-09-27T04:46:26;1.50;;;0.50;;
6663;SDS011;58749;48.022;10.922;2022-09-27T04:48:57;1.55;;;0.93;;
6663;SDS011;58749;48.022;10.922;2022-09-27T04:51:25;1.67;;;0.85;;
6663;SDS011;58749;48.022;10.922;2022-09-27T04:53:54;1.17;;;0.50;;
6663;SDS011;58749;48.022;10.922;2022-09-27T04:56:23;1.25;;;0.60;;
6663;SDS011;58749;48.022;10.922;2022-09-27T04:58:51;1.60;;;0.65;;
6663;SDS011;58749;48.022;10.922;2022-09-27T05:01:19;1.75;;;0.60;;
6663;SDS011;58749;48.022;10.922;2022-09-27T05:03:49;0.82;;;0.50;;
6663;SDS011;58749;48.022;10.922;2022-09-27T05:06:17;3.03;;;0.60;;
6663;SDS011;58749;48.022;10.922;2022-09-27T05:08:46;1.95;;;0.45;;
6663;SDS011;58749;48.022;10.922;2022-09-27T05:11:14;0.80;;;0.38;;
6663;SDS011;58749;48.022;10.922;2022-09-27T05:13:42;0.57;;;0.55;;
6663;SDS011;58749;48.022;10.922;2022-09-27T05:16:10;0.20;;;0.20;;
6663;SDS011;58749;48.022;10.922;2022-09-27T05:18:38;1.58;;;0.57;;
6663;SDS011;58749;48.022;10.922;2022-09-27T05:21:07;0.65;;;0.30;;
6663;SDS011;58749;48.022;10.922;2022-09-27T05:23:35;0.85;;;0.38;;
6663;SDS011;58749;48.022;10.922;2022-09-27T05:26:03;0.80;;;0.40;;
6663;SDS011;58749;48.022;10.922;2022-09-27T05:28:32;3.28;;;1.08;;
6663;SDS011;58749;48.022;10.922;2022-09-27T05:31:00;1.23;;;0.30;;
6663;SDS011;58749;48.022;10.922;2022-09-27T05:33:28;0.60;;;0.38;;
6663;SDS011;58749;48.022;10.922;2022-09-27T05:35:58;1.20;;;0.47;;
6663;SDS011;58749;48.022;10.922;2022-09-27T05:38:28;1.30;;;0.52;;
6663;SDS011;58749;48.022;10.922;2022-09-27T05:40:57;3.65;;;1.13;;
6663;SDS011;58749;48.022;10.922;2022-09-27T05:43:25;0.95;;;0.50;;
6663;SDS011;58749;48.022;10.922;2022-09-27T05:45:53;1.17;;;0.40;;
6663;SDS011;58749;48.022;10.922;2022-09-27T05:48:21;2.97;;;0.50;;
6663;SDS011;58749;48.022;10.922;2022-09-27T05:50:50;0.57;;;0.40;;
6663;SDS011;58749;48.022;10.922;2022-09-27T05:53:18;0.57;;;0.38;;
6663;SDS011;58749;48.022;10.922;2022-09-27T05:55:47;1.98;;;0.68;;
6663;SDS011;58749;48.022;10.922;2022-09-27T05:58:15;1.75;;;0.50;;
6663;SDS011;58749;48.022;10.922;2022-09-27T06:00:43;0.68;;;0.30;;
6663;SDS011;58749;48.022;10.922;2022-09-27T06:03:11;0.52;;;0.40;;
6663;SDS011;58749;48.022;10.922;2022-09-27T06:05:40;1.27;;;0.70;;
6663;SDS011;58749;48.022;10.922;2022-09-27T06:08:11;1.73;;;0.43;;
6663;SDS011;58749;48.022;10.922;2022-09-27T06:10:40;2.92;;;0.40;;
6663;SDS011;58749;48.022;10.922;2022-09-27T06:13:10;0.35;;;0.25;;
6663;SDS011;58749;48.022;10.922;2022-09-27T06:15:40;1.30;;;0.50;;
6663;SDS011;58749;48.022;10.922;2022-09-27T06:18:09;1.50;;;0.20;;
6663;SDS011;58749;48.022;10.922;2022-09-27T06:20:40;2.40;;;0.45;;
6663;SDS011;58749;48.022;10.922;2022-09-27T06:23:10;1.05;;;0.77;;
6663;SDS011;58749;48.022;10.922;2022-09-27T06:25:40;2.80;;;0.60;;
6663;SDS011;58749;48.022;10.922;2022-09-27T06:28:10;4.00;;;0.75;;
6663;SDS011;58749;48.022;10.922;2022-09-27T06:30:39;2.05;;;0.50;;
6663;SDS011;58749;48.022;10.922;2022-09-27T06:33:10;2.58;;;0.82;;
6663;SDS011;58749;48.022;10.922;2022-09-27T06:35:40;2.22;;;0.50;;
6663;SDS011;58749;48.022;10.922;2022-09-27T06:38:10;0.75;;;0.43;;
6663;SDS011;58749;48.022;10.922;2022-09-27T06:40:40;1.55;;;0.30;;
6663;SDS011;58749;48.022;10.922;2022-09-27T06:43:13;0.32;;;0.30;;
6663;SDS011;58749;48.022;10.922;2022-09-27T06:45:45;3.30;;;0.40;;
6663;SDS011;58749;48.022;10.922;2022-09-27T06:48:14;2.35;;;0.30;;
6663;SDS011;58749;48.022;10.922;2022-09-27T06:50:43;2.38;;;0.35;;
6663;SDS011;58749;48.022;10.922;2022-09-27T06:53:14;1.48;;;0.35;;
6663;SDS011;58749;48.022;10.922;2022-09-27T06:55:43;1.77;;;0.30;;
6663;SDS011;58749;48.022;10.922;2022-09-27T06:58:12;4.47;;;0.40;;
6663;SDS011;58749;48.022;10.922;2022-09-27T07:00:57;0.70;;;0.40;;
6663;SDS011;58749;48.022;10.922;2022-09-27T07:03:25;1.55;;;0.45;;
6663;SDS011;58749;48.022;10.922;2022-09-27T07:06:03;1.23;;;0.32;;
6663;SDS011;58749;48.022;10.922;2022-09-27T07:08:32;0.35;;;0.10;;
6663;SDS011;58749;48.022;10.922;2022-09-27T07:11:01;1.00;;;0.40;;
6663;SDS011;58749;48.022;10.922;2022-09-27T07:13:32;1.75;;;0.40;;
6663;SDS011;58749;48.022;10.922;2022-09-27T07:16:05;1.98;;;0.17;;
6663;SDS011;58749;48.022;10.922;2022-09-27T07:18:33;1.02;;;0.30;;
6663;SDS011;58749;48.022;10.922;2022-09-27T07:21:02;0.60;;;0.20;;
6663;SDS011;58749;48.022;10.922;2022-09-27T07:23:30;1.20;;;0.57;;
6663;SDS011;58749;48.022;10.922;2022-09-27T07:25:59;1.27;;;0.38;;
6663;SDS011;58749;48.022;10.922;2022-09-27T07:28:29;0.55;;;0.22;;
6663;SDS011;58749;48.022;10.922;2022-09-27T07:30:59;0.68;;;0.20;;
6663;SDS011;58749;48.022;10.922;2022-09-27T07:33:29;2.58;;;0.93;;
6663;SDS011;58749;48.022;10.922;2022-09-27T07:35:57;0.82;;;0.30;;
6663;SDS011;58749;48.022;10.922;2022-09-27T07:38:25;1.23;;;0.38;;
6663;SDS011;58749;48.022;10.922;2022-09-27T07:40:53;1.05;;;0.43;;
6663;SDS011;58749;48.022;10.922;2022-09-27T07:43:21;2.63;;;0.80;;
6663;SDS011;58749;48.022;10.922;2022-09-27T07:45:49;1.88;;;0.40;;
6663;SDS011;58749;48.022;10.922;2022-09-27T07:48:19;1.63;;;0.68;;
6663;SDS011;58749;48.022;10.922;2022-09-27T07:50:47;3.63;;;0.57;;
6663;SDS011;58749;48.022;10.922;2022-09-27T07:53:15;2.00;;;0.50;;
6663;SDS011;58749;48.022;10.922;2022-09-27T07:55:43;0.75;;;0.47;;
6663;SDS011;58749;48.022;10.922;2022-09-27T07:58:16;4.13;;;0.47;;
6663;SDS011;58749;48.022;10.922;2022-09-27T08:00:44;1.45;;;0.43;;
6663;SDS011;58749;48.022;10.922;2022-09-27T08:03:13;1.33;;;0.38;;
6663;SDS011;58749;48.022;10.922;2022-09-27T08:05:44;0.43;;;0.20;;
6663;SDS011;58749;48.022;10.922;2022-09-27T08:08:13;3.20;;;0.30;;
6663;SDS011;58749;48.022;10.922;2022-09-27T08:10:42;2.85;;;0.30;;
6663;SDS011;58749;48.022;10.922;2022-09-27T08:13:13;0.57;;;0.10;;
6663;SDS011;58749;48.022;10.922;2022-09-27T08:15:43;0.40;;;0.20;;
6663;SDS011;58749;48.022;10.922;2022-09-27T08:18:11;0.93;;;0.20;;
6663;SDS011;58749;48.022;10.922;2022-09-27T08:20:39;0.63;;;0.10;;
6663;SDS011;58749;48.022;10.922;2022-09-27T08:23:08;0.20;;;0.10;;
6663;SDS011;58749;48.022;10.922;2022-09-27T08:25:37;0.93;;;0.28;;
6663;SDS011;58749;48.022;10.922;2022-09-27T08:28:05;0.32;;;0.10;;
6663;SDS011;58749;48.022;10.922;2022-09-27T08:30:33;0.73;;;0.28;;
6663;SDS011;58749;48.022;10.922;2022-09-27T08:33:03;1.08;;;0.13;;
6663;SDS011;58749;48.022;10.922;2022-09-27T08:35:32;0.40;;;0.30;;
6663;SDS011;58749;48.022;10.922;2022-09-27T08:38:00;1.80;;;0.40;;
6663;SDS011;58749;48.022;10.922;2022-09-27T08:40:36;0.93;;;0.38;;
6663;SDS011;58749;48.022;10.922;2022-09-27T08:43:14;0.75;;;0.20;;
6663;SDS011;58749;48.022;10.922;2022-09-27T08:45:54;1.10;;;0.47;;
6663;SDS011;58749;48.022;10.922;2022-09-27T08:48:30;0.80;;;0.25;;
6663;SDS011;58749;48.022;10.922;2022-09-27T08:51:01;0.90;;;0.52;;
6663;SDS011;58749;48.022;10.922;2022-09-27T08:53:32;1.55;;;0.30;;
6663;SDS011;58749;48.022;10.922;2022-09-27T08:58:36;0.70;;;0.30;;
6663;SDS011;58749;48.022;10.922;2022-09-27T09:01:10;0.32;;;0.20;;
6663;SDS011;58749;48.022;10.922;2022-09-27T09:03:42;0.65;;;0.40;;
6663;SDS011;58749;48.022;10.922;2022-09-27T09:06:15;1.15;;;0.20;;
6663;SDS011;58749;48.022;10.922;2022-09-27T09:08:56;1.88;;;0.47;;
6663;SDS011;58749;48.022;10.922;2022-09-27T09:11:38;0.88;;;0.13;;
6663;SDS011;58749;48.022;10.922;2022-09-27T09:14:35;1.45;;;0.20;;
6663;SDS011;58749;48.022;10.922;2022-09-27T09:17:15;1.00;;;0.43;;
6663;SDS011;58749;48.022;10.922;2022-09-27T09:19:55;1.60;;;0.43;;
6663;SDS011;58749;48.022;10.922;2022-09-27T09:22:35;0.20;;;0.20;;
6663;SDS011;58749;48.022;10.922;2022-09-27T09:25:21;1.08;;;0.43;;
6663;SDS011;58749;48.022;10.922;2022-09-27T09:28:01;0.35;;;0.25;;
6663;SDS011;58749;48.022;10.922;2022-09-27T09:30:40;1.20;;;0.47;;
6663;SDS011;58749;48.022;10.922;2022-09-27T09:33:20;1.75;;;0.55;;
6663;SDS011;58749;48.022;10.922;2022-09-27T09:35:52;1.20;;;0.50;;
6663;SDS011;58749;48.022;10.922;2022-09-27T09:38:26;0.57;;;0.28;;
6663;SDS011;58749;48.022;10.922;2022-09-27T09:41:02;0.68;;;0.20;;
6663;SDS011;58749;48.022;10.922;2022-09-27T09:46:06;2.10;;;0.30;;
6663;SDS011;58749;48.022;10.922;2022-09-27T09:48:39;0.52;;;0.40;;
6663;SDS011;58749;48.022;10.922;2022-09-27T09:51:14;1.38;;;0.30;;
6663;SDS011;58749;48.022;10.922;2022-09-27T09:53:48;0.60;;;0.43;;
6663;SDS011;58749;48.022;10.922;2022-09-27T09:56:22;0.20;;;0.20;;
6663;SDS011;58749;48.022;10.922;2022-09-27T09:58:55;0.40;;;0.30;;
6663;SDS011;58749;48.022;10.922;2022-09-27T10:01:29;1.08;;;0.47;;
6663;SDS011;58749;48.022;10.922;2022-09-27T10:04:01;2.40;;;0.57;;
6663;SDS011;58749;48.022;10.922;2022-09-27T10:06:30;2.50;;;0.30;;
6663;SDS011;58749;48.022;10.922;2022-09-27T10:08:59;0.30;;;0.20;;
6663;SDS011;58749;48.022;10.922;2022-09-27T10:11:28;2.13;;;0.35;;
6663;SDS011;58749;48.022;10.922;2022-09-27T10:14:04;2.05;;;0.30;;
6663;SDS011;58749;48.022;10.922;2022-09-27T10:16:37;2.03;;;0.35;;
6663;SDS011;58749;48.022;10.922;2022-09-27T10:19:08;0.50;;;0.40;;
6663;SDS011;58749;48.022;10.922;2022-09-27T10:21:39;0.85;;;0.40;;
6663;SDS011;58749;48.022;10.922;2022-09-27T10:24:11;0.95;;;0.57;;
6663;SDS011;58749;48.022;10.922;2022-09-27T10:26:44;0.52;;;0.20;;
6663;SDS011;58749;48.022;10.922;2022-09-27T10:29:21;0.98;;;0.20;;
6663;SDS011;58749;48.022;10.922;2022-09-27T10:31:50;0.43;;;0.22;;
6663;SDS011;58749;48.022;10.922;2022-09-27T10:34:22;0.88;;;0.30;;
6663;SDS011;58749;48.022;10.922;2022-09-27T10:37:14;0.20;;;0.20;;
6663;SDS011;58749;48.022;10.922;2022-09-27T10:39:44;1.08;;;0.30;;
6663;SDS011;58749;48.022;10.922;2022-09-27T10:42:21;0.28;;;0.28;;
6663;SDS011;58749;48.022;10.922;2022-09-27T10:44:58;1.05;;;0.30;;
6663;SDS011;58749;48.022;10.922;2022-09-27T10:47:46;0.77;;;0.20;;
6663;SDS011;58749;48.022;10.922;2022-09-27T10:50:15;0.60;;;0.38;;
6663;SDS011;58749;48.022;10.922;2022-09-27T10:53:10;0.20;;;0.20;;
6663;SDS011;58749;48.022;10.922;2022-09-27T10:55:41;1.75;;;0.50;;
6663;SDS011;58749;48.022;10.922;2022-09-27T10:58:15;0.93;;;0.40;;
6663;SDS011;58749;48.022;10.922;2022-09-27T11:00:54;0.63;;;0.20;;
6663;SDS011;58749;48.022;10.922;2022-09-27T11:03:23;1.80;;;0.30;;
6663;SDS011;58749;48.022;10.922;2022-09-27T11:05:54;1.15;;;1.00;;
6663;SDS011;58749;48.022;10.922;2022-09-27T11:08:28;1.27;;;0.40;;
6663;SDS011;58749;48.022;10.922;2022-09-27T11:10:59;1.20;;;0.30;;
6663;SDS011;58749;48.022;10.922;2022-09-27T11:13:33;0.60;;;0.40;;
6663;SDS011;58749;48.022;10.922;2022-09-27T11:16:10;0.95;;;0.50;;
6663;SDS011;58749;48.022;10.922;2022-09-27T11:18:49;0.65;;;0.30;;
6663;SDS011;58749;48.022;10.922;2022-09-27T11:21:30;0.60;;;0.40;;
6663;SDS011;58749;48.022;10.922;2022-09-27T11:24:14;1.50;;;0.50;;
6663;SDS011;58749;48.022;10.922;2022-09-27T11:26:53;1.23;;;0.40;;
6663;SDS011;58749;48.022;10.922;2022-09-27T11:29:34;0.80;;;0.38;;
6663;SDS011;58749;48.022;10.922;2022-09-27T11:32:15;0.43;;;0.32;;
6663;SDS011;58749;48.022;10.922;2022-09-27T11:34:58;0.98;;;0.30;;
6663;SDS011;58749;48.022;10.922;2022-09-27T11:37:39;0.65;;;0.30;;
6663;SDS011;58749;48.022;10.922;2022-09-27T11:40:19;1.23;;;0.50;;
6663;SDS011;58749;48.022;10.922;2022-09-27T11:43:07;1.20;;;0.80;;
6663;SDS011;58749;48.022;10.922;2022-09-27T11:45:45;0.88;;;0.55;;
6663;SDS011;58749;48.022;10.922;2022-09-27T11:48:51;1.80;;;0.55;;
6663;SDS011;58749;48.022;10.922;2022-09-27T11:51:37;0.47;;;0.20;;
6663;SDS011;58749;48.022;10.922;2022-09-27T11:54:26;2.22;;;0.70;;
6663;SDS011;58749;48.022;10.922;2022-09-27T11:57:06;0.52;;;0.35;;
6663;SDS011;58749;48.022;10.922;2022-09-27T12:02:53;2.95;;;0.60;;
6663;SDS011;58749;48.022;10.922;2022-09-27T12:05:37;1.48;;;0.47;;
6663;SDS011;58749;48.022;10.922;2022-09-27T12:08:30;1.23;;;0.50;;
6663;SDS011;58749;48.022;10.922;2022-09-27T12:11:09;4.07;;;0.77;;
6663;SDS011;58749;48.022;10.922;2022-09-27T12:13:44;2.90;;;0.63;;
6663;SDS011;58749;48.022;10.922;2022-09-27T12:16:15;1.08;;;0.50;;
6663;SDS011;58749;48.022;10.922;2022-09-27T12:18:45;2.22;;;0.52;;
6663;SDS011;58749;48.022;10.922;2022-09-27T12:21:18;1.45;;;0.50;;
6663;SDS011;58749;48.022;10.922;2022-09-27T12:23:48;3.10;;;0.47;;
6663;SDS011;58749;48.022;10.922;2022-09-27T12:26:22;0.50;;;0.30;;
6663;SDS011;58749;48.022;10.922;2022-09-27T12:28:54;2.00;;;0.45;;
6663;SDS011;58749;48.022;10.922;2022-09-27T12:31:26;2.92;;;0.40;;
6663;SDS011;58749;48.022;10.922;2022-09-27T12:34:01;1.02;;;0.47;;
6663;SDS011;58749;48.022;10.922;2022-09-27T12:36:46;0.80;;;0.50;;
6663;SDS011;58749;48.022;10.922;2022-09-27T12:39:20;1.38;;;0.40;;
6663;SDS011;58749;48.022;10.922;2022-09-27T12:41:52;3.35;;;0.47;;
6663;SDS011;58749;48.022;10.922;2022-09-27T12:44:36;2.80;;;0.30;;
6663;SDS011;58749;48.022;10.922;2022-09-27T12:47:06;2.70;;;0.57;;
6663;SDS011;58749;48.022;10.922;2022-09-27T12:49:43;3.35;;;0.50;;
6663;SDS011;58749;48.022;10.922;2022-09-27T12:52:29;0.63;;;0.30;;
6663;SDS011;58749;48.022;10.922;2022-09-27T13:01:09;1.95;;;0.68;;
6663;SDS011;58749;48.022;10.922;2022-09-27T13:03:50;1.65;;;0.65;;
6663;SDS011;58749;48.022;10.922;2022-09-27T13:06:41;0.95;;;0.50;;
6663;SDS011;58749;48.022;10.922;2022-09-27T13:12:17;1.50;;;0.40;;
6663;SDS011;58749;48.022;10.922;2022-09-27T13:14:53;0.73;;;0.30;;
6663;SDS011;58749;48.022;10.922;2022-09-27T13:17:30;2.55;;;0.50;;
6663;SDS011;58749;48.022;10.922;2022-09-27T13:20:32;2.58;;;0.60;;
6663;SDS011;58749;48.022;10.922;2022-09-27T13:23:47;0.77;;;0.32;;
6663;SDS011;58749;48.022;10.922;2022-09-27T13:26:41;0.25;;;0.25;;
6663;SDS011;58749;48.022;10.922;2022-09-27T13:29:29;0.98;;;0.43;;
6663;SDS011;58749;48.022;10.922;2022-09-27T13:34:53;1.45;;;0.25;;
6663;SDS011;58749;48.022;10.922;2022-09-27T13:37:31;0.85;;;0.20;;
6663;SDS011;58749;48.022;10.922;2022-09-27T13:40:10;1.98;;;0.70;;
6663;SDS011;58749;48.022;10.922;2022-09-27T13:46:00;0.52;;;0.28;;
6663;SDS011;58749;48.022;10.922;2022-09-27T13:48:37;0.95;;;0.30;;
6663;SDS011;58749;48.022;10.922;2022-09-27T13:51:16;0.50;;;0.50;;
6663;SDS011;58749;48.022;10.922;2022-09-27T13:53:56;2.83;;;1.60;;
6663;SDS011;58749;48.022;10.922;2022-09-27T13:59:16;0.22;;;0.10;;
6663;SDS011;58749;48.022;10.922;2022-09-27T14:01:53;1.23;;;0.30;;
6663;SDS011;58749;48.022;10.922;2022-09-27T14:04:27;0.45;;;0.17;;
6663;SDS011;58749;48.022;10.922;2022-09-27T14:07:00;1.15;;;0.60;;
6663;SDS011;58749;48.022;10.922;2022-09-27T14:09:31;2.40;;;0.40;;
6663;SDS011;58749;48.022;10.922;2022-09-27T14:12:03;0.60;;;0.30;;
6663;SDS011;58749;48.022;10.922;2022-09-27T14:14:37;0.85;;;0.40;;
6663;SDS011;58749;48.022;10.922;2022-09-27T14:17:09;0.20;;;0.20;;
6663;SDS011;58749;48.022;10.922;2022-09-27T14:19:38;6.90;;;0.60;;
6663;SDS011;58749;48.022;10.922;2022-09-27T14:22:11;1.88;;;0.70;;
6663;SDS011;58749;48.022;10.922;2022-09-27T14:24:44;1.38;;;0.63;;
6663;SDS011;58749;48.022;10.922;2022-09-27T14:27:15;2.83;;;1.05;;
6663;SDS011;58749;48.022;10.922;2022-09-27T14:29:46;1.17;;;0.95;;
6663;SDS011;58749;48.022;10.922;2022-09-27T14:32:20;1.65;;;1.02;;
6663;SDS011;58749;48.022;10.922;2022-09-27T14:35:06;0.93;;;0.77;;
6663;SDS011;58749;48.022;10.922;2022-09-27T14:37:58;2.03;;;1.05;;
6663;SDS011;58749;48.022;10.922;2022-09-27T14:40:53;11.13;;;6.90;;
6663;SDS011;58749;48.022;10.922;2022-09-27T14:43:25;2.25;;;2.05;;
6663;SDS011;58749;48.022;10.922;2022-09-27T14:45:56;3.92;;;2.13;;
6663;SDS011;58749;48.022;10.922;2022-09-27T14:48:28;2.33;;;1.17;;
6663;SDS011;58749;48.022;10.922;2022-09-27T14:50:59;0.85;;;0.50;;
6663;SDS011;58749;48.022;10.922;2022-09-27T14:53:33;1.92;;;0.77;;
6663;SDS011;58749;48.022;10.922;2022-09-27T14:56:03;1.38;;;0.50;;
6663;SDS011;58749;48.022;10.922;2022-09-27T14:58:33;1.23;;;0.73;;
6663;SDS011;58749;48.022;10.922;2022-09-27T15:01:13;1.40;;;0.73;;
6663;SDS011;58749;48.022;10.922;2022-09-27T15:03:44;1.25;;;0.68;;
6663;SDS011;58749;48.022;10.922;2022-09-27T15:06:15;4.80;;;0.70;;
6663;SDS011;58749;48.022;10.922;2022-09-27T15:08:43;2.30;;;0.60;;
6663;SDS011;58749;48.022;10.922;2022-09-27T15:11:15;2.47;;;1.10;;
6663;SDS011;58749;48.022;10.922;2022-09-27T15:13:45;2.45;;;0.85;;
6663;SDS011;58749;48.022;10.922;2022-09-27T15:16:18;1.92;;;0.75;;
6663;SDS011;58749;48.022;10.922;2022-09-27T15:18:58;7.55;;;1.48;;
6663;SDS011;58749;48.022;10.922;2022-09-27T15:21:29;2.42;;;1.30;;
6663;SDS011;58749;48.022;10.922;2022-09-27T15:23:59;11.48;;;8.40;;
6663;SDS011;58749;48.022;10.922;2022-09-27T15:26:33;6.18;;;4.22;;
6663;SDS011;58749;48.022;10.922;2022-09-27T15:29:04;4.65;;;4.22;;
6663;SDS011;58749;48.022;10.922;2022-09-27T15:31:33;2.97;;;1.20;;
6663;SDS011;58749;48.022;10.922;2022-09-27T15:34:04;1.83;;;0.95;;
6663;SDS011;58749;48.022;10.922;2022-09-27T15:36:52;1.55;;;1.10;;
6663;SDS011;58749;48.022;10.922;2022-09-27T15:39:25;4.78;;;0.77;;
6663;SDS011;58749;48.022;10.922;2022-09-27T15:42:02;3.10;;;1.05;;
6663;SDS011;58749;48.022;10.922;2022-09-27T15:44:44;1.38;;;0.55;;
6663;SDS011;58749;48.022;10.922;2022-09-27T15:53:04;1.83;;;1.10;;
6663;SDS011;58749;48.022;10.922;2022-09-27T15:55:33;3.30;;;1.20;;
6663;SDS011;58749;48.022;10.922;2022-09-27T15:58:05;3.65;;;1.13;;
6663;SDS011;58749;48.022;10.922;2022-09-27T16:00:49;3.35;;;0.90;;
6663;SDS011;58749;48.022;10.922;2022-09-27T16:03:17;1.55;;;0.80;;